Terminal Aerodrome Forecast
Issued by NWS Albany, NY

Home | Current Version | Previous Version | Text Only | Print | Product List | Glossary On
Versions: 1 2 3 4 5 6 7 8 9 10 11 12 13 14 15 16 17 18 19 20 21
000
FTUS41 KALY 142300
TAFALB
TAF
KALB 142327Z 1500/1524 06004KT P6SM BKN250
     FM150300 00000KT P6SM SKC
     FM151200 29004KT P6SM SCT250
     FM152100 30005KT P6SM SCT150 BKN250=

USA.gov is the U.S. government's official web portal to all federal, state and local government web resources and services.